createdAt,value
2022-10-04T00:02:25.614Z,10.94
2022-10-04T00:05:03.099Z,10.95
2022-10-04T00:07:35.363Z,10.96
2022-10-04T00:10:08.873Z,10.97
2022-10-04T00:12:41.118Z,10.97
2022-10-04T00:15:24.810Z,10.98
2022-10-04T00:18:18.476Z,10.99
2022-10-04T00:21:05.253Z,10.99
2022-10-04T00:23:45.449Z,11.00
2022-10-04T00:26:31.617Z,10.99
2022-10-04T00:28:59.963Z,11.00
2022-10-04T00:31:30.577Z,11.00
2022-10-04T00:34:38.231Z,11.01
2022-10-04T00:37:14.794Z,11.01
2022-10-04T00:39:44.984Z,11.00
2022-10-04T00:42:40.143Z,11.02
2022-10-04T00:45:15.451Z,11.02
2022-10-04T00:48:09.714Z,11.01
2022-10-04T00:50:43.651Z,11.02
2022-10-04T00:53:24.158Z,11.01
2022-10-04T00:55:56.954Z,11.00
2022-10-04T00:58:30.418Z,11.00
2022-10-04T01:01:00.599Z,10.99
2022-10-04T01:03:34.617Z,10.97
2022-10-04T01:06:06.310Z,10.95
2022-10-04T01:08:39.694Z,10.95
2022-10-04T01:11:12.686Z,10.93
2022-10-04T01:13:44.497Z,10.91
2022-10-04T01:16:16.158Z,10.89
2022-10-04T01:18:47.409Z,10.89
2022-10-04T01:21:28.215Z,10.86
2022-10-04T01:24:18.635Z,10.84
2022-10-04T01:26:47.066Z,10.82
2022-10-04T01:29:18.504Z,10.80
2022-10-04T01:31:48.917Z,10.78
2022-10-04T01:34:19.482Z,10.75
2022-10-04T01:36:49.659Z,10.73
2022-10-04T01:39:22.457Z,10.72
2022-10-04T01:41:57.428Z,10.71
2022-10-04T01:44:32.985Z,10.69
2022-10-04T01:47:09.236Z,10.68
2022-10-04T01:49:40.667Z,10.66
2022-10-04T01:52:16.347Z,10.66
2022-10-04T01:54:50.430Z,10.65
2022-10-04T01:57:22.235Z,10.64
2022-10-04T01:59:56.165Z,10.62
2022-10-04T02:02:32.054Z,10.61
2022-10-04T02:05:14.854Z,10.59
2022-10-04T02:07:44.539Z,10.58
2022-10-04T02:10:19.657Z,10.57
2022-10-04T02:12:50.537Z,10.55
2022-10-04T02:15:21.347Z,10.54
2022-10-04T02:17:50.182Z,10.52
2022-10-04T02:20:21.295Z,10.52
2022-10-04T02:22:53.451Z,10.50
2022-10-04T02:25:23.778Z,10.48
2022-10-04T02:27:55.559Z,10.46
2022-10-04T02:30:25.170Z,10.45
2022-10-04T02:32:57.627Z,10.43
2022-10-04T02:35:28.210Z,10.41
2022-10-04T02:38:08.755Z,10.39
2022-10-04T02:40:45.984Z,10.36
2022-10-04T02:43:19.538Z,10.34
2022-10-04T02:45:53.333Z,10.32
2022-10-04T02:48:29.696Z,10.31
2022-10-04T02:51:06.140Z,10.31
2022-10-04T02:53:44.351Z,10.30
2022-10-04T02:56:14.779Z,10.31
2022-10-04T02:58:43.712Z,10.31
2022-10-04T03:01:18.956Z,10.32
2022-10-04T03:03:48.659Z,10.32
2022-10-04T03:06:20.092Z,10.34
2022-10-04T03:08:52.496Z,10.36
2022-10-04T03:11:27.306Z,10.39
2022-10-04T03:13:59.741Z,10.40
2022-10-04T03:16:28.626Z,10.41
2022-10-04T03:18:58.513Z,10.44
2022-10-04T03:21:27.894Z,10.45
2022-10-04T03:23:56.580Z,10.47
2022-10-04T03:26:30.397Z,10.47
2022-10-04T03:28:59.895Z,10.48
2022-10-04T03:31:29.647Z,10.48
2022-10-04T03:33:59.051Z,10.48
2022-10-04T03:36:28.422Z,10.49
2022-10-04T03:38:58.846Z,10.50
2022-10-04T03:41:28.595Z,10.48
2022-10-04T03:44:00.418Z,10.49
2022-10-04T03:46:32.608Z,10.51
2022-10-04T03:49:01.545Z,10.51
2022-10-04T03:51:30.181Z,10.52
2022-10-04T03:54:01.399Z,10.52
2022-10-04T03:56:33.960Z,10.54
2022-10-04T03:59:04.984Z,10.55
2022-10-04T04:01:40.450Z,10.55
2022-10-04T04:04:19.989Z,10.55
2022-10-04T04:06:56.055Z,10.53
2022-10-04T04:09:27.659Z,10.54
2022-10-04T04:11:58.837Z,10.53
2022-10-04T04:14:29.066Z,10.52
2022-10-04T04:17:18.596Z,10.52
2022-10-04T04:19:48.390Z,10.51
2022-10-04T04:22:19.078Z,10.50
2022-10-04T04:24:49.653Z,10.47
2022-10-04T04:27:19.782Z,10.46
2022-10-04T04:29:52.597Z,10.43
2022-10-04T04:32:24.193Z,10.41
2022-10-04T04:34:58.416Z,10.39
2022-10-04T04:37:26.797Z,10.36
2022-10-04T04:39:56.406Z,10.35
2022-10-04T04:42:33.921Z,10.32
2022-10-04T04:45:04.740Z,10.30
2022-10-04T04:47:36.871Z,10.27
2022-10-04T04:50:09.271Z,10.24
2022-10-04T04:52:38.882Z,10.22
2022-10-04T04:55:16.736Z,10.20
2022-10-04T04:57:45.864Z,10.18
2022-10-04T05:00:19.387Z,10.17
2022-10-04T05:02:58.876Z,10.16
2022-10-04T05:05:30.350Z,10.13
2022-10-04T05:08:13.570Z,10.13
2022-10-04T05:10:45.378Z,10.12
2022-10-04T05:13:15.822Z,10.12
2022-10-04T05:15:44.901Z,10.11
2022-10-04T05:18:28.240Z,10.13
2022-10-04T05:21:03.953Z,10.13
2022-10-04T05:23:34.077Z,10.16
2022-10-04T05:26:04.752Z,10.17
2022-10-04T05:28:34.331Z,10.19
2022-10-04T05:31:29.595Z,10.19
2022-10-04T05:33:59.614Z,10.20
2022-10-04T05:36:51.898Z,10.23
2022-10-04T05:39:26.183Z,10.23
2022-10-04T05:42:07.718Z,10.24
2022-10-04T05:44:45.602Z,10.24
2022-10-04T05:47:15.327Z,10.24
2022-10-04T05:49:46.509Z,10.24
2022-10-04T05:52:26.183Z,10.25
2022-10-04T05:55:17.768Z,10.25
2022-10-04T05:57:58.235Z,10.24
2022-10-04T06:00:40.828Z,10.25
2022-10-04T06:03:29.173Z,10.24
2022-10-04T06:06:01.615Z,10.24
2022-10-04T06:08:43.634Z,10.24
2022-10-04T06:11:27.658Z,10.26
2022-10-04T06:14:30.555Z,10.25
2022-10-04T06:17:22.703Z,10.27
2022-10-04T06:20:23.579Z,10.28
2022-10-04T06:23:00.251Z,10.28
2022-10-04T06:25:32.902Z,10.30
2022-10-04T06:28:15.645Z,10.31
2022-10-04T06:31:04.370Z,10.32
2022-10-04T06:33:50.898Z,10.33
2022-10-04T06:36:46.706Z,10.33
2022-10-04T06:39:44.014Z,10.36
2022-10-04T06:42:40.561Z,10.38
2022-10-04T06:45:28.048Z,10.40
2022-10-04T06:48:16.722Z,10.41
2022-10-04T06:50:51.195Z,10.43
2022-10-04T06:53:27.650Z,10.45
2022-10-04T06:56:13.637Z,10.48
2022-10-04T06:59:03.032Z,10.50
2022-10-04T07:01:33.182Z,10.52
2022-10-04T07:04:12.489Z,10.56
2022-10-04T07:06:47.581Z,10.60
2022-10-04T07:09:23.313Z,10.63
2022-10-04T07:11:56.779Z,10.67
2022-10-04T07:14:33.706Z,10.71
2022-10-04T07:17:06.105Z,10.75
2022-10-04T07:19:40.786Z,10.79
2022-10-04T07:22:15.809Z,10.84
2022-10-04T07:24:58.518Z,10.89
2022-10-04T07:27:31.793Z,10.94
2022-10-04T07:30:05.280Z,10.98
2022-10-04T07:32:38.645Z,11.01
2022-10-04T07:35:18.339Z,11.07
2022-10-04T07:37:53.315Z,11.11
2022-10-04T07:40:26.470Z,11.14
2022-10-04T07:43:00.509Z,11.20
2022-10-04T07:45:33.464Z,11.24
2022-10-04T07:48:17.593Z,11.28
2022-10-04T07:50:51.995Z,11.35
2022-10-04T07:53:25.688Z,11.38
2022-10-04T07:55:58.357Z,11.43
2022-10-04T07:58:45.889Z,11.47
2022-10-04T08:01:24.291Z,11.50
2022-10-04T08:04:15.210Z,11.53
2022-10-04T08:06:56.094Z,11.55
2022-10-04T08:09:49.970Z,11.56
2022-10-04T08:12:25.741Z,11.57
2022-10-04T08:15:16.147Z,11.56
2022-10-04T08:17:56.489Z,11.55
2022-10-04T08:20:37.808Z,11.57
2022-10-04T08:23:22.469Z,11.57
2022-10-04T08:26:05.006Z,11.57
2022-10-04T08:29:11.798Z,11.57
2022-10-04T08:32:04.963Z,11.59
2022-10-04T08:34:53.181Z,11.62
2022-10-04T08:37:33.801Z,11.64
2022-10-04T08:40:41.718Z,11.70
2022-10-04T08:43:50.302Z,11.78
2022-10-04T08:46:52.900Z,11.86
2022-10-04T08:49:45.031Z,11.95
2022-10-04T08:52:42.101Z,12.01
2022-10-04T08:55:34.976Z,12.10
2022-10-04T08:58:34.667Z,12.21
2022-10-04T09:01:40.574Z,12.30
2022-10-04T09:04:54.741Z,12.39
2022-10-04T09:08:05.329Z,12.48
2022-10-04T09:10:44.498Z,12.54
2022-10-04T09:13:30.321Z,12.58
2022-10-04T09:16:09.244Z,12.63
2022-10-04T09:18:51.018Z,12.68
2022-10-04T09:21:29.791Z,12.73
2022-10-04T09:24:48.483Z,12.80
2022-10-04T09:27:54.217Z,12.87
2022-10-04T09:30:32.000Z,12.96
2022-10-04T09:33:15.673Z,13.04
2022-10-04T09:36:07.293Z,13.13
2022-10-04T09:39:25.573Z,13.22
2022-10-04T09:42:16.128Z,13.32
2022-10-04T09:45:08.276Z,13.43
2022-10-04T09:47:45.839Z,13.52
2022-10-04T09:50:39.791Z,13.64
2022-10-04T09:53:36.055Z,13.73
2022-10-04T09:56:21.494Z,13.81
2022-10-04T09:59:08.665Z,13.88
2022-10-04T10:01:44.999Z,13.95
2022-10-04T10:04:43.630Z,14.05
2022-10-04T10:07:26.379Z,14.12
2022-10-04T10:10:20.067Z,14.19
2022-10-04T10:13:31.904Z,14.26
2022-10-04T10:16:12.793Z,14.31
2022-10-04T10:18:56.079Z,14.35
2022-10-04T10:21:48.992Z,14.36
2022-10-04T10:24:33.560Z,14.42
2022-10-04T10:27:14.866Z,14.48
2022-10-04T10:30:14.459Z,14.56
2022-10-04T10:33:09.193Z,14.66
2022-10-04T10:35:52.467Z,14.76
2022-10-04T10:38:40.196Z,14.87
2022-10-04T10:41:30.182Z,14.98
2022-10-04T10:44:16.319Z,15.06
2022-10-04T10:46:58.429Z,15.15
2022-10-04T10:49:49.652Z,15.22
2022-10-04T10:53:07.593Z,15.32
2022-10-04T10:56:18.957Z,15.43
2022-10-04T10:59:24.477Z,15.54
2022-10-04T11:02:14.843Z,15.67
2022-10-04T11:05:06.695Z,15.79
2022-10-04T11:07:51.574Z,15.89
2022-10-04T11:10:34.794Z,15.94
2022-10-04T11:13:38.179Z,16.03
2022-10-04T11:16:48.318Z,16.13
2022-10-04T11:19:41.558Z,16.21
2022-10-04T11:22:34.758Z,16.29
2022-10-04T11:25:36.029Z,16.37
2022-10-04T11:28:12.334Z,16.45
2022-10-04T11:31:09.131Z,16.55
2022-10-04T11:34:03.237Z,16.66
2022-10-04T11:36:50.025Z,16.71
2022-10-04T11:39:49.868Z,16.80
2022-10-04T11:42:31.031Z,16.92
2022-10-04T11:45:21.452Z,17.01
2022-10-04T11:48:02.441Z,17.01
2022-10-04T11:50:40.005Z,17.11
2022-10-04T11:53:47.628Z,17.14
2022-10-04T11:56:46.849Z,17.23
2022-10-04T11:59:27.533Z,17.33
2022-10-04T12:02:22.329Z,17.45
2022-10-04T12:05:36.097Z,17.61
2022-10-04T12:08:19.544Z,17.75
2022-10-04T12:11:15.243Z,17.84
2022-10-04T12:13:59.504Z,17.94
2022-10-04T12:17:19.920Z,18.09
2022-10-04T12:20:28.701Z,18.21
2022-10-04T12:23:15.258Z,18.30
2022-10-04T12:26:00.393Z,18.43
2022-10-04T12:28:51.376Z,18.56
2022-10-04T12:31:29.292Z,18.63
2022-10-04T12:34:05.968Z,18.74
2022-10-04T12:36:51.011Z,18.88
2022-10-04T12:39:40.886Z,19.04
2022-10-04T12:42:24.231Z,19.18
2022-10-04T12:45:21.802Z,19.34
2022-10-04T12:48:12.236Z,19.47
2022-10-04T12:50:53.046Z,19.59
2022-10-04T12:53:34.330Z,19.68
2022-10-04T12:56:21.779Z,19.72
2022-10-04T12:59:15.311Z,19.74
2022-10-04T13:01:54.867Z,19.81
2022-10-04T13:04:32.735Z,19.91
2022-10-04T13:07:32.723Z,20.02
2022-10-04T13:10:24.953Z,19.97
2022-10-04T13:13:33.137Z,20.04
2022-10-04T13:19:11.054Z,20.12
2022-10-04T13:22:02.605Z,20.16
2022-10-04T13:24:55.003Z,20.24
2022-10-04T13:27:30.839Z,20.39
2022-10-04T13:30:06.936Z,20.54
2022-10-04T13:32:45.316Z,20.62
2022-10-04T13:35:20.879Z,20.72
2022-10-04T13:38:07.040Z,20.85
2022-10-04T13:40:48.498Z,20.96
2022-10-04T13:43:47.440Z,21.09
2022-10-04T13:46:28.055Z,21.22
2022-10-04T13:49:06.174Z,21.37
2022-10-04T13:51:48.108Z,21.45
2022-10-04T13:54:49.282Z,21.58
2022-10-04T13:57:25.229Z,21.72
2022-10-04T14:00:00.688Z,21.80
2022-10-04T14:03:04.852Z,21.93
2022-10-04T14:06:08.816Z,22.02
2022-10-04T14:09:24.390Z,22.11
2022-10-04T14:12:17.655Z,22.12
2022-10-04T14:15:07.401Z,22.22
2022-10-04T14:18:13.680Z,22.38
2022-10-04T14:21:15.300Z,22.50
2022-10-04T14:24:07.910Z,22.53
2022-10-04T14:27:06.241Z,22.60
2022-10-04T14:30:07.598Z,22.67
2022-10-04T14:33:21.084Z,22.70
2022-10-04T14:35:57.626Z,22.80
2022-10-04T14:38:47.787Z,22.95
2022-10-04T14:42:07.190Z,23.02
2022-10-04T14:45:12.423Z,22.99
2022-10-04T14:47:49.712Z,22.96
2022-10-04T14:50:28.256Z,23.03
2022-10-04T14:53:10.222Z,23.16
2022-10-04T14:56:18.140Z,23.22
2022-10-04T14:59:00.008Z,23.24
2022-10-04T15:01:30.103Z,23.23
2022-10-04T15:04:15.044Z,23.16
2022-10-04T15:06:49.537Z,23.06
2022-10-04T15:09:53.555Z,23.01
2022-10-04T15:13:09.211Z,22.96
2022-10-04T15:15:58.741Z,22.87
2022-10-04T15:18:38.559Z,22.84
2022-10-04T15:21:32.482Z,22.81
2022-10-04T15:24:25.604Z,22.78
2022-10-04T15:27:32.862Z,22.68
2022-10-04T15:30:10.824Z,22.57
2022-10-04T15:32:46.061Z,22.54
2022-10-04T15:35:28.521Z,22.49
2022-10-04T15:38:01.602Z,22.46
2022-10-04T15:40:42.938Z,22.41
2022-10-04T15:43:22.138Z,22.31
2022-10-04T15:46:03.498Z,22.21
2022-10-04T15:48:47.650Z,22.07
2022-10-04T15:51:33.971Z,21.91
2022-10-04T15:54:44.152Z,21.68
2022-10-04T15:57:31.313Z,21.49
2022-10-04T16:00:08.810Z,21.34
2022-10-04T16:02:50.532Z,21.18
2022-10-04T16:05:27.169Z,21.01
2022-10-04T16:08:21.222Z,20.84
2022-10-04T16:11:03.873Z,20.66
2022-10-04T16:13:55.534Z,20.50
2022-10-04T16:17:11.766Z,20.31
2022-10-04T16:20:02.011Z,20.11
2022-10-04T16:22:32.402Z,19.97
2022-10-04T16:25:38.554Z,19.81
2022-10-04T16:28:20.334Z,19.67
2022-10-04T16:31:00.899Z,19.54
2022-10-04T16:33:36.836Z,19.42
2022-10-04T16:36:11.819Z,19.27
2022-10-04T16:39:07.556Z,19.13
2022-10-04T16:41:44.282Z,18.98
2022-10-04T16:44:37.684Z,18.83
2022-10-04T16:47:22.131Z,18.67
2022-10-04T16:49:55.060Z,18.55
2022-10-04T16:52:39.465Z,18.43
2022-10-04T16:55:43.536Z,18.27
2022-10-04T16:58:45.079Z,18.15
2022-10-04T17:01:55.677Z,18.00
2022-10-04T17:04:49.287Z,17.86
2022-10-04T17:07:30.533Z,17.74
2022-10-04T17:10:07.045Z,17.62
2022-10-04T17:12:47.787Z,17.52
2022-10-04T17:15:45.255Z,17.41
2022-10-04T17:18:19.718Z,17.32
2022-10-04T17:20:58.106Z,17.24
2022-10-04T17:23:51.617Z,17.14
2022-10-04T17:26:40.788Z,17.01
2022-10-04T17:29:25.460Z,16.90
2022-10-04T17:31:59.273Z,16.80
2022-10-04T17:34:41.318Z,16.68
2022-10-04T17:37:21.177Z,16.59
2022-10-04T17:39:54.405Z,16.50
2022-10-04T17:42:34.868Z,16.39
2022-10-04T17:45:19.707Z,16.31
2022-10-04T17:48:13.604Z,16.21
2022-10-04T17:51:08.369Z,16.12
2022-10-04T17:53:58.635Z,16.01
2022-10-04T17:56:34.627Z,15.92
2022-10-04T17:59:12.386Z,15.83
2022-10-04T18:01:47.154Z,15.76
2022-10-04T18:04:20.586Z,15.69
2022-10-04T18:06:54.461Z,15.62
2022-10-04T18:09:28.220Z,15.54
2022-10-04T18:12:00.671Z,15.48
2022-10-04T18:15:01.758Z,15.41
2022-10-04T18:17:39.274Z,15.36
2022-10-04T18:20:32.453Z,15.28
2022-10-04T18:23:04.041Z,15.21
2022-10-04T18:25:33.921Z,15.14
2022-10-04T18:28:06.824Z,15.06
2022-10-04T18:30:51.483Z,15.00
2022-10-04T18:33:26.429Z,14.93
2022-10-04T18:36:05.790Z,14.89
2022-10-04T18:38:35.877Z,14.84
2022-10-04T18:41:19.076Z,14.80
2022-10-04T18:43:53.468Z,14.75
2022-10-04T18:46:25.247Z,14.70
2022-10-04T18:49:01.060Z,14.65
2022-10-04T18:51:39.154Z,14.61
2022-10-04T18:54:21.424Z,14.56
2022-10-04T18:57:00.444Z,14.52
2022-10-04T18:59:57.951Z,14.46
2022-10-04T19:02:35.150Z,14.40
2022-10-04T19:05:11.726Z,14.36
2022-10-04T19:07:47.267Z,14.34
2022-10-04T19:10:22.522Z,14.30
2022-10-04T19:13:03.480Z,14.25
2022-10-04T19:15:47.670Z,14.24
2022-10-04T19:18:43.463Z,14.22
2022-10-04T19:21:23.327Z,14.20
2022-10-04T19:24:15.220Z,14.16
2022-10-04T19:26:48.635Z,14.14
2022-10-04T19:29:30.996Z,14.12
2022-10-04T19:32:02.953Z,14.11
2022-10-04T19:34:39.910Z,14.08
2022-10-04T19:37:15.664Z,14.05
2022-10-04T19:39:57.947Z,14.02
2022-10-04T19:42:35.023Z,14.00
2022-10-04T19:45:19.455Z,13.98
2022-10-04T19:47:50.937Z,13.96
2022-10-04T19:50:23.715Z,13.94
2022-10-04T19:52:54.408Z,13.92
2022-10-04T19:55:29.802Z,13.89
2022-10-04T19:58:07.323Z,13.87
2022-10-04T20:00:37.590Z,13.83
2022-10-04T20:03:12.783Z,13.80
2022-10-04T20:05:45.874Z,13.77
2022-10-04T20:08:15.534Z,13.72
2022-10-04T20:10:45.446Z,13.72
2022-10-04T20:13:23.432Z,13.68
2022-10-04T20:15:56.327Z,13.65
2022-10-04T20:19:01.062Z,13.62
2022-10-04T20:21:32.115Z,13.57
2022-10-04T20:24:01.525Z,13.54
2022-10-04T20:26:56.418Z,13.51
2022-10-04T20:29:39.844Z,13.46
2022-10-04T20:32:09.353Z,13.44
2022-10-04T20:34:49.841Z,13.40
2022-10-04T20:37:19.203Z,13.36
2022-10-04T20:39:57.417Z,13.33
2022-10-04T20:42:35.439Z,13.30
2022-10-04T20:45:21.725Z,13.27
2022-10-04T20:47:51.853Z,13.23
2022-10-04T20:50:39.646Z,13.21
2022-10-04T20:53:15.879Z,13.16
2022-10-04T20:55:46.026Z,13.14
2022-10-04T20:58:32.160Z,13.09
2022-10-04T21:01:13.415Z,13.06
2022-10-04T21:03:41.782Z,13.05
2022-10-04T21:06:12.381Z,13.02
2022-10-04T21:08:41.524Z,13.00
2022-10-04T21:11:21.155Z,12.97
2022-10-04T21:13:54.120Z,12.94
2022-10-04T21:16:39.995Z,12.92
2022-10-04T21:19:30.971Z,12.88
2022-10-04T21:22:00.355Z,12.87
2022-10-04T21:24:35.851Z,12.85
2022-10-04T21:27:05.676Z,12.81
2022-10-04T21:29:36.652Z,12.79
2022-10-04T21:32:05.823Z,12.78
2022-10-04T21:34:52.483Z,12.76
2022-10-04T21:37:21.816Z,12.73
2022-10-04T21:39:50.181Z,12.73
2022-10-04T21:42:19.429Z,12.71
2022-10-04T21:44:49.439Z,12.70
2022-10-04T21:47:18.413Z,12.67
2022-10-04T21:49:47.209Z,12.65
2022-10-04T21:52:17.417Z,12.63
2022-10-04T21:54:45.810Z,12.62
2022-10-04T21:57:14.575Z,12.61
2022-10-04T21:59:42.853Z,12.59
2022-10-04T22:02:12.579Z,12.58
2022-10-04T22:04:41.825Z,12.57
2022-10-04T22:07:10.718Z,12.59
2022-10-04T22:09:39.078Z,12.59
2022-10-04T22:12:07.433Z,12.59
2022-10-04T22:14:35.815Z,12.60
2022-10-04T22:17:04.261Z,12.62
2022-10-04T22:19:33.933Z,12.63
2022-10-04T22:22:02.263Z,12.64
2022-10-04T22:24:30.574Z,12.66
2022-10-04T22:26:59.424Z,12.68
2022-10-04T22:29:28.102Z,12.69
2022-10-04T22:31:56.505Z,12.70
2022-10-04T22:34:24.963Z,12.72
2022-10-04T22:36:54.884Z,12.73
2022-10-04T22:39:23.247Z,12.74
2022-10-04T22:41:56.451Z,12.74
2022-10-04T22:44:28.530Z,12.79
2022-10-04T22:46:59.862Z,12.81
2022-10-04T22:49:31.415Z,12.83
2022-10-04T22:52:04.012Z,12.86
2022-10-04T22:54:34.856Z,12.88
2022-10-04T22:57:03.258Z,12.91
2022-10-04T22:59:35.847Z,12.93
2022-10-04T23:02:11.360Z,12.95
2022-10-04T23:04:41.775Z,12.95
2022-10-04T23:07:11.469Z,12.98
2022-10-04T23:09:39.816Z,12.98
2022-10-04T23:12:09.861Z,12.98
2022-10-04T23:14:38.980Z,12.99
2022-10-04T23:17:21.428Z,13.00
2022-10-04T23:19:50.443Z,13.00
2022-10-04T23:22:24.106Z,13.02
2022-10-04T23:24:52.856Z,13.02
2022-10-04T23:27:21.206Z,13.01
2022-10-04T23:29:53.548Z,13.02
2022-10-04T23:32:21.891Z,13.02
2022-10-04T23:34:56.481Z,13.01
2022-10-04T23:37:28.366Z,13.01
2022-10-04T23:39:56.664Z,13.02
2022-10-04T23:42:29.553Z,13.00
2022-10-04T23:44:58.789Z,13.00
2022-10-04T23:47:34.029Z,13.00
2022-10-04T23:50:05.604Z,12.99
2022-10-04T23:52:38.245Z,12.98
2022-10-04T23:55:15.527Z,12.97
2022-10-04T23:57:43.931Z,12.96
